KAL433 RKSI-WADD
Flight info
| Callsign | KAL433 |
|---|---|
| Flight time | N/A |
| Altitude | 36000 |
| Route | BOPTA2A BOPTA Z51 BEDES Y711 KIDOS Z81 CJU Y572 RUGMA Y579 RUSAR Y27 SAKON/N0481F350 DCT GURAG/N0482F360 G578 EMTAS |
| Aircraft | B77W/H-SDE1E2E3FGHIJ2J3J4J5M1RWXY/LB1D1 |
Departure
| Time | 2026-05-04 12:55 |
|---|---|
| Airport | Incheon International Airport (RKSI) |
Arrival
| Time | N/A |
|---|---|
| Airport | Denpasar I Gusti Ngurah Rai International Airport (WADD) |
| Time | Latitude | Longitude | Altitude | Speed | Heading |
|---|---|---|---|---|---|
| 2026-05-04 12:31 | 37.46322 | 126.43199 | 23 ft | 0 kts | 69° |
| 2026-05-04 12:41 | 37.46322 | 126.43197 | 38 ft | 1 kts | 69° |
| 2026-05-04 12:41 | 37.46316 | 126.43178 | 18 ft | 3 kts | 70° |
| 2026-05-04 12:42 | 37.46309 | 126.43154 | 12 ft | 3 kts | 70° |
| 2026-05-04 12:42 | 37.46303 | 126.43133 | 22 ft | 2 kts | 70° |
| 2026-05-04 12:42 | 37.46297 | 126.43111 | 39 ft | 3 kts | 85° |
| 2026-05-04 12:42 | 37.46298 | 126.43091 | 39 ft | 3 kts | 110° |
| 2026-05-04 12:43 | 37.46303 | 126.43076 | 35 ft | 3 kts | 142° |
| 2026-05-04 12:43 | 37.46319 | 126.43065 | 35 ft | 3 kts | 160° |
| 2026-05-04 12:43 | 37.46337 | 126.43057 | 37 ft | 2 kts | 158° |
| 2026-05-04 12:43 | 37.46346 | 126.43052 | 36 ft | 1 kts | 156° |
| 2026-05-04 12:44 | 37.46347 | 126.43052 | 38 ft | 0 kts | 156° |
| 2026-05-04 12:45 | 37.46329 | 126.43062 | 37 ft | 8 kts | 156° |
| 2026-05-04 12:45 | 37.46253 | 126.43105 | 38 ft | 13 kts | 156° |
| 2026-05-04 12:46 | 37.46167 | 126.43153 | 38 ft | 13 kts | 156° |
| 2026-05-04 12:46 | 37.46101 | 126.43215 | 38 ft | 12 kts | 143° |
| 2026-05-04 12:46 | 37.46035 | 126.43274 | 38 ft | 12 kts | 145° |
| 2026-05-04 12:46 | 37.45977 | 126.43284 | 38 ft | 8 kts | 204° |
| 2026-05-04 12:47 | 37.45937 | 126.43230 | 38 ft | 9 kts | 218° |
| 2026-05-04 12:47 | 37.45877 | 126.43227 | 38 ft | 11 kts | 150° |
| 2026-05-04 12:47 | 37.45784 | 126.43309 | 38 ft | 22 kts | 144° |
| 2026-05-04 12:47 | 37.45637 | 126.43440 | 37 ft | 28 kts | 145° |
| 2026-05-04 12:48 | 37.45475 | 126.43584 | 37 ft | 28 kts | 144° |
| 2026-05-04 12:48 | 37.45314 | 126.43728 | 37 ft | 28 kts | 144° |
| 2026-05-04 12:48 | 37.45152 | 126.43872 | 37 ft | 28 kts | 145° |
| 2026-05-04 12:48 | 37.44991 | 126.44015 | 37 ft | 28 kts | 144° |
| 2026-05-04 12:49 | 37.44829 | 126.44160 | 37 ft | 28 kts | 144° |
| 2026-05-04 12:49 | 37.44679 | 126.44293 | 37 ft | 23 kts | 144° |
| 2026-05-04 12:49 | 37.44561 | 126.44398 | 37 ft | 16 kts | 144° |
| 2026-05-04 12:49 | 37.44497 | 126.44413 | 37 ft | 8 kts | 201° |
| 2026-05-04 12:50 | 37.44459 | 126.44360 | 37 ft | 8 kts | 236° |
| 2026-05-04 12:50 | 37.44426 | 126.44299 | 37 ft | 8 kts | 235° |
| 2026-05-04 12:50 | 37.44392 | 126.44239 | 37 ft | 8 kts | 234° |
| 2026-05-04 12:50 | 37.44372 | 126.44172 | 37 ft | 9 kts | 277° |
| 2026-05-04 12:51 | 37.44403 | 126.44122 | 37 ft | 6 kts | 321° |
| 2026-05-04 12:51 | 37.44411 | 126.44115 | 37 ft | 0 kts | 324° |
| 2026-05-04 12:54 | 37.44431 | 126.44096 | 37 ft | 17 kts | 324° |
| 2026-05-04 12:54 | 37.44782 | 126.43783 | 38 ft | 108 kts | 324° |
| 2026-05-04 12:55 | 37.45624 | 126.43031 | 50 ft | 184 kts | 325° |
| 2026-05-04 12:55 | 37.46688 | 126.42121 | 873 ft | 188 kts | 323° |
| 2026-05-04 12:55 | 37.47719 | 126.41170 | 1926 ft | 184 kts | 314° |
| 2026-05-04 12:55 | 37.48593 | 126.39891 | 2276 ft | 206 kts | 307° |
| 2026-05-04 12:56 | 37.49529 | 126.38354 | 2525 ft | 235 kts | 306° |
| 2026-05-04 12:56 | 37.50304 | 126.36520 | 3102 ft | 243 kts | 282° |
| 2026-05-04 12:56 | 37.50444 | 126.34378 | 3851 ft | 250 kts | 272° |
| 2026-05-04 12:56 | 37.50496 | 126.32166 | 4675 ft | 254 kts | 273° |
| 2026-05-04 12:57 | 37.50549 | 126.29927 | 5569 ft | 257 kts | 272° |
| 2026-05-04 12:57 | 37.50603 | 126.27654 | 6423 ft | 261 kts | 272° |
| 2026-05-04 12:57 | 37.50656 | 126.25348 | 7198 ft | 266 kts | 273° |
| 2026-05-04 12:57 | 37.50712 | 126.22996 | 7966 ft | 271 kts | 273° |
| 2026-05-04 12:58 | 37.50660 | 126.20616 | 8639 ft | 277 kts | 259° |
| 2026-05-04 12:58 | 37.49797 | 126.18411 | 9293 ft | 289 kts | 229° |
| 2026-05-04 12:58 | 37.48159 | 126.16933 | 10048 ft | 294 kts | 204° |
| 2026-05-04 12:58 | 37.46212 | 126.16004 | 10519 ft | 309 kts | 201° |
| 2026-05-04 12:59 | 37.44102 | 126.15060 | 10683 ft | 332 kts | 198° |
| 2026-05-04 12:59 | 37.41731 | 126.14752 | 10840 ft | 359 kts | 173° |
| 2026-05-04 12:59 | 37.39331 | 126.15844 | 11169 ft | 378 kts | 145° |
| 2026-05-04 12:59 | 37.37434 | 126.18151 | 11781 ft | 384 kts | 128° |
| 2026-05-04 13:00 | 37.35743 | 126.20801 | 12516 ft | 392 kts | 129° |
| 2026-05-04 13:00 | 37.33986 | 126.23435 | 13488 ft | 395 kts | 130° |
| 2026-05-04 13:00 | 37.32181 | 126.26051 | 14417 ft | 398 kts | 131° |
| 2026-05-04 13:00 | 37.30341 | 126.28683 | 15237 ft | 403 kts | 131° |
| 2026-05-04 13:01 | 37.28473 | 126.31344 | 16046 ft | 408 kts | 131° |
| 2026-05-04 13:01 | 37.26581 | 126.34042 | 16865 ft | 414 kts | 130° |
| 2026-05-04 13:01 | 37.24669 | 126.36769 | 17669 ft | 418 kts | 130° |
| 2026-05-04 13:01 | 37.22734 | 126.39527 | 18451 ft | 423 kts | 130° |
| 2026-05-04 13:02 | 37.20683 | 126.42193 | 19090 ft | 429 kts | 138° |
| 2026-05-04 13:02 | 37.18270 | 126.44426 | 19758 ft | 434 kts | 148° |
| 2026-05-04 13:02 | 37.15586 | 126.46196 | 20472 ft | 438 kts | 157° |
| 2026-05-04 13:02 | 37.12718 | 126.47533 | 21175 ft | 441 kts | 160° |
| 2026-05-04 13:03 | 37.09807 | 126.48832 | 21841 ft | 446 kts | 160° |
| 2026-05-04 13:03 | 37.06918 | 126.50166 | 22492 ft | 450 kts | 159° |
| 2026-05-04 13:03 | 37.03933 | 126.51562 | 23150 ft | 455 kts | 160° |
| 2026-05-04 13:03 | 37.00898 | 126.52731 | 23765 ft | 458 kts | 165° |
| 2026-05-04 13:04 | 36.97828 | 126.53712 | 24276 ft | 463 kts | 167° |
| 2026-05-04 13:04 | 36.94687 | 126.54682 | 24823 ft | 466 kts | 167° |
| 2026-05-04 13:04 | 36.91533 | 126.55685 | 25374 ft | 469 kts | 167° |
| 2026-05-04 13:04 | 36.88365 | 126.56723 | 25902 ft | 472 kts | 167° |
| 2026-05-04 13:05 | 36.85176 | 126.57777 | 26405 ft | 476 kts | 167° |
| 2026-05-04 13:05 | 36.81964 | 126.58832 | 26885 ft | 479 kts | 167° |
| 2026-05-04 13:05 | 36.78725 | 126.59892 | 27367 ft | 483 kts | 168° |
| 2026-05-04 13:05 | 36.75455 | 126.60960 | 27849 ft | 486 kts | 168° |
| 2026-05-04 13:06 | 36.72176 | 126.62033 | 28298 ft | 489 kts | 168° |
| 2026-05-04 13:06 | 36.68877 | 126.63132 | 28733 ft | 492 kts | 168° |
| 2026-05-04 13:06 | 36.65560 | 126.64249 | 29140 ft | 495 kts | 168° |
| 2026-05-04 13:06 | 36.62225 | 126.65377 | 29560 ft | 498 kts | 169° |
| 2026-05-04 13:07 | 36.58881 | 126.66506 | 30077 ft | 497 kts | 169° |
| 2026-05-04 13:07 | 36.55532 | 126.67462 | 30607 ft | 491 kts | 175° |
| 2026-05-04 13:07 | 36.52165 | 126.67961 | 31132 ft | 484 kts | 181° |
| 2026-05-04 13:07 | 36.48865 | 126.68046 | 31635 ft | 477 kts | 187° |
| 2026-05-04 13:08 | 36.45550 | 126.67868 | 32117 ft | 475 kts | 187° |
| 2026-05-04 13:08 | 36.42248 | 126.67688 | 32575 ft | 474 kts | 187° |
| 2026-05-04 13:08 | 36.38961 | 126.67517 | 33044 ft | 472 kts | 187° |
| 2026-05-04 13:08 | 36.35677 | 126.67356 | 33524 ft | 470 kts | 187° |
| 2026-05-04 13:09 | 36.32414 | 126.67205 | 33973 ft | 468 kts | 187° |
| 2026-05-04 13:09 | 36.29164 | 126.67059 | 34335 ft | 467 kts | 187° |
| 2026-05-04 13:09 | 36.25911 | 126.66915 | 34618 ft | 468 kts | 187° |
| 2026-05-04 13:09 | 36.22660 | 126.66773 | 34888 ft | 468 kts | 188° |
| 2026-05-04 13:10 | 36.19399 | 126.66632 | 35190 ft | 468 kts | 188° |
| 2026-05-04 13:10 | 36.16153 | 126.66492 | 35502 ft | 467 kts | 188° |
| 2026-05-04 13:10 | 36.12900 | 126.66352 | 35800 ft | 466 kts | 188° |
| 2026-05-04 13:10 | 36.09705 | 126.66213 | 36044 ft | 467 kts | 188° |
| 2026-05-04 13:11 | 36.06437 | 126.66070 | 36076 ft | 471 kts | 188° |
| 2026-05-04 13:11 | 35.99883 | 126.65786 | 36124 ft | 469 kts | 188° |
| 2026-05-04 13:12 | 35.93402 | 126.65511 | 36129 ft | 464 kts | 188° |
| 2026-05-04 13:12 | 35.86958 | 126.65233 | 36133 ft | 462 kts | 188° |
| 2026-05-04 13:13 | 35.80531 | 126.64954 | 36139 ft | 462 kts | 188° |
| 2026-05-04 13:13 | 35.74106 | 126.64676 | 36131 ft | 462 kts | 188° |
| 2026-05-04 13:14 | 35.67675 | 126.64399 | 36124 ft | 463 kts | 188° |
| 2026-05-04 13:14 | 35.61233 | 126.64123 | 36126 ft | 464 kts | 189° |
| 2026-05-04 13:15 | 35.54772 | 126.63847 | 36110 ft | 465 kts | 189° |
| 2026-05-04 13:15 | 35.48308 | 126.63571 | 36116 ft | 465 kts | 189° |
| 2026-05-04 13:16 | 35.41838 | 126.63295 | 36114 ft | 465 kts | 189° |
| 2026-05-04 13:16 | 35.35374 | 126.63020 | 36113 ft | 464 kts | 189° |
| 2026-05-04 13:17 | 35.28920 | 126.62747 | 36117 ft | 464 kts | 189° |
| 2026-05-04 13:17 | 35.22486 | 126.62472 | 36121 ft | 462 kts | 189° |
| 2026-05-04 13:18 | 35.16107 | 126.62204 | 36129 ft | 461 kts | 189° |
| 2026-05-04 13:18 | 35.09692 | 126.61933 | 36135 ft | 461 kts | 189° |
| 2026-05-04 13:19 | 35.03281 | 126.61661 | 36137 ft | 461 kts | 189° |
| 2026-05-04 13:19 | 34.96872 | 126.61390 | 36140 ft | 461 kts | 189° |
| 2026-05-04 13:20 | 34.90465 | 126.61120 | 36142 ft | 460 kts | 189° |
| 2026-05-04 13:20 | 34.84058 | 126.60851 | 36139 ft | 460 kts | 189° |
| 2026-05-04 13:21 | 34.77658 | 126.60582 | 36127 ft | 460 kts | 189° |
| 2026-05-04 13:21 | 34.71258 | 126.60314 | 36121 ft | 460 kts | 189° |
| 2026-05-04 13:22 | 34.64863 | 126.60046 | 36134 ft | 460 kts | 189° |
| 2026-05-04 13:22 | 34.58465 | 126.59779 | 36131 ft | 460 kts | 189° |
| 2026-05-04 13:23 | 34.52065 | 126.59512 | 36132 ft | 459 kts | 190° |
| 2026-05-04 13:23 | 34.45717 | 126.59247 | 36131 ft | 458 kts | 190° |
| 2026-05-04 13:24 | 34.39340 | 126.58983 | 36140 ft | 458 kts | 190° |
| 2026-05-04 13:24 | 34.32975 | 126.58717 | 36141 ft | 457 kts | 190° |
| 2026-05-04 13:25 | 34.23444 | 126.58323 | 36137 ft | 456 kts | 190° |
| 2026-05-04 13:25 | 34.17111 | 126.58061 | 36145 ft | 455 kts | 191° |
| 2026-05-04 13:26 | 34.10821 | 126.57801 | 36146 ft | 454 kts | 191° |
| 2026-05-04 13:26 | 34.04505 | 126.57540 | 36150 ft | 453 kts | 191° |
| 2026-05-04 13:27 | 33.98202 | 126.57281 | 36150 ft | 453 kts | 191° |
| 2026-05-04 13:27 | 33.91912 | 126.57021 | 36153 ft | 452 kts | 191° |
| 2026-05-04 13:28 | 33.85628 | 126.56768 | 36155 ft | 452 kts | 190° |
| 2026-05-04 13:28 | 33.79277 | 126.57224 | 36167 ft | 461 kts | 183° |
| 2026-05-04 13:29 | 33.72901 | 126.58077 | 36163 ft | 460 kts | 183° |
| 2026-05-04 13:29 | 33.66534 | 126.58903 | 36168 ft | 460 kts | 184° |
| 2026-05-04 13:30 | 33.60215 | 126.59696 | 36175 ft | 459 kts | 184° |
| 2026-05-04 13:30 | 33.53821 | 126.60492 | 36178 ft | 459 kts | 184° |
| 2026-05-04 13:31 | 33.47516 | 126.61277 | 36183 ft | 459 kts | 184° |
| 2026-05-04 13:31 | 33.41158 | 126.62076 | 36174 ft | 459 kts | 183° |
| 2026-05-04 13:32 | 33.34809 | 126.63713 | 36156 ft | 475 kts | 172° |
| 2026-05-04 13:32 | 33.28527 | 126.66237 | 36154 ft | 475 kts | 172° |
| 2026-05-04 13:33 | 33.22250 | 126.68690 | 36151 ft | 474 kts | 173° |
| 2026-05-04 13:33 | 33.15973 | 126.71116 | 36149 ft | 474 kts | 173° |
| 2026-05-04 13:34 | 33.09745 | 126.73537 | 36152 ft | 473 kts | 173° |
| 2026-05-04 13:34 | 33.03485 | 126.75966 | 36149 ft | 473 kts | 173° |
| 2026-05-04 13:35 | 32.94106 | 126.79600 | 36161 ft | 472 kts | 173° |
| 2026-05-04 13:36 | 32.88919 | 126.81610 | 36160 ft | 471 kts | 173° |
| 2026-05-04 13:36 | 32.82686 | 126.84022 | 36158 ft | 471 kts | 173° |
| 2026-05-04 13:37 | 32.76450 | 126.86432 | 36160 ft | 470 kts | 173° |
| 2026-05-04 13:37 | 32.70225 | 126.88834 | 36158 ft | 470 kts | 174° |
| 2026-05-04 13:38 | 32.63994 | 126.91234 | 36162 ft | 470 kts | 174° |
| 2026-05-04 13:38 | 32.57779 | 126.93626 | 36163 ft | 470 kts | 174° |
| 2026-05-04 13:39 | 32.51598 | 126.96001 | 36155 ft | 470 kts | 174° |
| 2026-05-04 13:39 | 32.45366 | 126.98246 | 36159 ft | 466 kts | 176° |
| 2026-05-04 13:40 | 32.39117 | 127.00285 | 36157 ft | 466 kts | 176° |
| 2026-05-04 13:40 | 32.32856 | 127.02364 | 36159 ft | 468 kts | 176° |
| 2026-05-04 13:41 | 32.26591 | 127.04471 | 36158 ft | 468 kts | 176° |
| 2026-05-04 13:41 | 32.20314 | 127.06584 | 36163 ft | 469 kts | 176° |
| 2026-05-04 13:42 | 32.10869 | 127.09760 | 36163 ft | 470 kts | 176° |
| 2026-05-04 13:42 | 32.04570 | 127.11874 | 36161 ft | 471 kts | 176° |
| 2026-05-04 13:43 | 31.98261 | 127.13981 | 36166 ft | 471 kts | 176° |
| 2026-05-04 13:43 | 31.91946 | 127.16081 | 36161 ft | 472 kts | 176° |
| 2026-05-04 13:44 | 31.85615 | 127.18185 | 36158 ft | 472 kts | 176° |
| 2026-05-04 13:44 | 31.79338 | 127.20269 | 36153 ft | 472 kts | 176° |
| 2026-05-04 13:45 | 31.73008 | 127.22369 | 36159 ft | 473 kts | 176° |
| 2026-05-04 13:45 | 31.66674 | 127.24467 | 36162 ft | 473 kts | 176° |
| 2026-05-04 13:46 | 31.60333 | 127.26564 | 36166 ft | 473 kts | 176° |
| 2026-05-04 13:46 | 31.53992 | 127.28658 | 36162 ft | 473 kts | 176° |
| 2026-05-04 13:47 | 31.47650 | 127.30750 | 36166 ft | 474 kts | 176° |
| 2026-05-04 13:47 | 31.41305 | 127.32839 | 36164 ft | 474 kts | 176° |
| 2026-05-04 13:48 | 31.34958 | 127.34928 | 36162 ft | 473 kts | 176° |
| 2026-05-04 13:48 | 31.28614 | 127.37012 | 36160 ft | 473 kts | 176° |
| 2026-05-04 13:49 | 31.22275 | 127.39098 | 36162 ft | 473 kts | 176° |
| 2026-05-04 13:49 | 31.15944 | 127.41208 | 36165 ft | 473 kts | 176° |
| 2026-05-04 13:50 | 31.09652 | 127.43309 | 36171 ft | 473 kts | 176° |
| 2026-05-04 13:50 | 31.03326 | 127.45415 | 36170 ft | 472 kts | 176° |
| 2026-05-04 13:51 | 30.97004 | 127.47514 | 36172 ft | 472 kts | 177° |
| 2026-05-04 13:51 | 30.90678 | 127.49612 | 36168 ft | 472 kts | 177° |
| 2026-05-04 13:52 | 30.81195 | 127.52751 | 36166 ft | 472 kts | 177° |
| 2026-05-04 13:53 | 30.74917 | 127.54825 | 36166 ft | 471 kts | 177° |
| 2026-05-04 13:53 | 30.68609 | 127.56907 | 36166 ft | 471 kts | 177° |
| 2026-05-04 13:54 | 30.59149 | 127.60023 | 36170 ft | 471 kts | 177° |
| 2026-05-04 13:55 | 30.49685 | 127.63134 | 36170 ft | 471 kts | 177° |
| 2026-05-04 13:55 | 30.40269 | 127.66224 | 36174 ft | 471 kts | 177° |
| 2026-05-04 13:56 | 30.33973 | 127.68287 | 36171 ft | 470 kts | 178° |
| 2026-05-04 13:57 | 30.24520 | 127.71378 | 36170 ft | 470 kts | 178° |
| 2026-05-04 13:58 | 30.11934 | 127.75466 | 36165 ft | 469 kts | 178° |
| 2026-05-04 13:58 | 30.02557 | 127.78506 | 36171 ft | 468 kts | 178° |
| 2026-05-04 13:59 | 29.96283 | 127.80538 | 36164 ft | 468 kts | 178° |